createdAt,value
2022-10-31T00:04:08.728Z,2.80
2022-10-31T00:09:10.526Z,2.95
2022-10-31T00:14:11.942Z,2.90
2022-10-31T00:19:13.421Z,3.10
2022-10-31T00:24:14.944Z,2.28
2022-10-31T00:29:16.344Z,2.70
2022-10-31T00:34:17.732Z,2.67
2022-10-31T00:39:19.118Z,2.28
2022-10-31T00:44:20.897Z,3.08
2022-10-31T00:49:22.423Z,3.10
2022-10-31T00:54:24.510Z,2.70
2022-10-31T00:59:25.989Z,3.20
2022-10-31T01:04:27.425Z,4.25
2022-10-31T01:09:30.284Z,2.33
2022-10-31T01:14:31.696Z,2.50
2022-10-31T01:19:33.232Z,2.42
2022-10-31T01:24:34.865Z,2.42
2022-10-31T01:29:37.187Z,2.75
2022-10-31T01:34:38.585Z,2.80
2022-10-31T01:39:39.997Z,2.92
2022-10-31T01:44:41.358Z,2.13
2022-10-31T01:50:03.446Z,2.20
2022-10-31T01:55:17.184Z,2.40
2022-10-31T02:00:20.945Z,2.70
2022-10-31T02:05:26.612Z,2.42
2022-10-31T02:10:31.255Z,2.30
2022-10-31T02:15:33.855Z,2.63
2022-10-31T02:20:50.229Z,3.17
2022-10-31T02:26:18.781Z,2.10
2022-10-31T02:31:33.776Z,3.28
2022-10-31T02:36:47.016Z,2.05
2022-10-31T02:42:04.927Z,2.25
2022-10-31T02:47:12.220Z,2.55
2022-10-31T02:52:34.840Z,2.35
2022-10-31T02:57:41.083Z,2.28
2022-10-31T03:02:48.565Z,2.50
2022-10-31T03:08:07.436Z,2.10
2022-10-31T03:13:13.695Z,2.63
2022-10-31T03:18:29.066Z,2.30
2022-10-31T03:23:32.945Z,2.20
2022-10-31T03:28:45.196Z,2.40
2022-10-31T03:33:50.141Z,2.40
2022-10-31T03:38:52.285Z,2.03
2022-10-31T03:43:58.921Z,1.75
2022-10-31T03:49:01.427Z,1.88
2022-10-31T03:54:14.665Z,2.15
2022-10-31T03:59:22.306Z,2.35
2022-10-31T04:04:27.253Z,2.07
2022-10-31T04:09:33.217Z,2.83
2022-10-31T04:14:38.196Z,1.80
2022-10-31T04:19:39.760Z,3.15
2022-10-31T04:24:41.931Z,2.10
2022-10-31T04:29:48.364Z,2.78
2022-10-31T04:34:52.418Z,2.15
2022-10-31T04:39:53.867Z,2.83
2022-10-31T04:45:16.872Z,3.15
2022-10-31T04:55:25.808Z,2.20
2022-10-31T05:00:52.908Z,2.35
2022-10-31T05:05:54.407Z,2.08
2022-10-31T05:10:57.360Z,2.15
2022-10-31T05:16:02.037Z,1.88
2022-10-31T05:21:21.764Z,2.28
2022-10-31T05:26:26.920Z,2.58
2022-10-31T05:31:30.158Z,2.35
2022-10-31T05:36:31.680Z,2.83
2022-10-31T05:41:35.378Z,2.83
2022-10-31T05:46:44.439Z,2.30
2022-10-31T05:52:04.279Z,2.22
2022-10-31T05:57:15.304Z,2.40
2022-10-31T06:02:17.312Z,3.83
2022-10-31T06:12:39.106Z,2.30
2022-10-31T06:18:03.833Z,2.25
2022-10-31T06:23:09.326Z,2.47
2022-10-31T06:28:10.828Z,2.42
2022-10-31T06:33:35.122Z,2.85
2022-10-31T06:38:37.091Z,2.92
2022-10-31T06:43:42.429Z,2.53
2022-10-31T06:49:07.265Z,3.95
2022-10-31T06:54:17.600Z,2.75
2022-10-31T06:59:19.680Z,2.85
2022-10-31T07:04:41.062Z,2.75
2022-10-31T07:09:43.425Z,2.38
2022-10-31T07:14:46.612Z,2.80
2022-10-31T07:19:48.532Z,2.33
2022-10-31T07:24:52.189Z,3.38
2022-10-31T07:29:53.588Z,3.33
2022-10-31T07:34:55.036Z,2.83
2022-10-31T07:39:58.489Z,3.15
2022-10-31T07:45:00.080Z,2.58
2022-10-31T07:50:23.462Z,2.83
2022-10-31T07:55:57.184Z,3.55
2022-10-31T08:01:04.239Z,2.72
2022-10-31T08:06:14.758Z,2.80
2022-10-31T08:11:34.651Z,2.55
2022-10-31T08:16:37.188Z,2.72
2022-10-31T08:21:41.220Z,2.90
2022-10-31T08:26:44.402Z,3.28
2022-10-31T08:31:46.954Z,4.00
2022-10-31T08:37:08.299Z,3.08
2022-10-31T08:42:16.453Z,3.38
2022-10-31T08:47:18.201Z,3.60
2022-10-31T08:52:19.718Z,3.35
2022-10-31T08:57:23.001Z,3.13
2022-10-31T09:02:24.640Z,3.05
2022-10-31T09:07:31.104Z,3.22
2022-10-31T09:12:33.804Z,2.80
2022-10-31T09:17:48.057Z,3.53
2022-10-31T09:22:58.659Z,3.08
2022-10-31T09:28:01.945Z,2.95
2022-10-31T09:33:06.683Z,3.30
2022-10-31T09:38:14.815Z,3.00
2022-10-31T09:43:34.619Z,3.15
2022-10-31T09:49:06.733Z,3.28
2022-10-31T09:54:36.618Z,3.10
2022-10-31T09:59:41.498Z,3.15
2022-10-31T10:04:52.422Z,4.03
2022-10-31T10:09:55.695Z,3.88
2022-10-31T10:15:37.042Z,3.15
2022-10-31T10:20:56.949Z,3.47
2022-10-31T10:26:18.075Z,3.55
2022-10-31T10:31:28.313Z,4.30
2022-10-31T10:36:47.189Z,4.47
2022-10-31T10:41:51.186Z,3.53
2022-10-31T10:47:00.101Z,4.55
2022-10-31T10:52:50.162Z,4.50
2022-10-31T10:57:58.411Z,4.13
2022-10-31T11:03:00.503Z,4.32
2022-10-31T11:08:02.825Z,4.28
2022-10-31T11:13:24.536Z,4.40
2022-10-31T11:18:28.775Z,4.55
2022-10-31T11:23:30.946Z,5.35
2022-10-31T11:28:34.336Z,5.63
2022-10-31T11:33:47.048Z,4.45
2022-10-31T11:38:49.115Z,4.47
2022-10-31T11:44:00.557Z,6.15
2022-10-31T11:49:03.872Z,4.60
2022-10-31T11:54:06.412Z,4.07
2022-10-31T11:59:19.618Z,5.57
2022-10-31T12:04:39.875Z,5.28
2022-10-31T12:09:42.243Z,5.75
2022-10-31T12:15:01.933Z,7.10
2022-10-31T12:20:31.296Z,5.03
2022-10-31T12:25:42.439Z,4.72
2022-10-31T12:31:00.036Z,5.18
2022-10-31T12:36:27.690Z,4.68
2022-10-31T12:41:46.859Z,3.55
2022-10-31T12:47:25.291Z,4.53
2022-10-31T12:52:49.560Z,3.38
2022-10-31T12:58:04.267Z,4.30
2022-10-31T13:03:27.359Z,3.60
2022-10-31T13:08:48.827Z,3.90
2022-10-31T13:14:06.698Z,4.13
2022-10-31T13:19:26.446Z,3.92
2022-10-31T13:24:36.036Z,5.47
2022-10-31T13:29:47.765Z,4.20
2022-10-31T13:34:55.000Z,5.30
2022-10-31T13:40:22.820Z,5.68
2022-10-31T13:45:25.999Z,5.17
2022-10-31T13:50:30.036Z,5.20
2022-10-31T13:55:44.358Z,5.75
2022-10-31T14:00:45.991Z,4.97
2022-10-31T14:05:55.198Z,5.13
2022-10-31T14:10:57.162Z,5.30
2022-10-31T14:16:01.144Z,6.68
2022-10-31T14:21:13.704Z,7.43
2022-10-31T14:26:23.654Z,6.15
2022-10-31T14:31:28.095Z,7.63
2022-10-31T14:36:35.369Z,6.50
2022-10-31T14:41:55.261Z,7.55
2022-10-31T14:47:17.009Z,7.68
2022-10-31T14:52:19.887Z,8.82
2022-10-31T14:57:35.489Z,7.75
2022-10-31T15:02:50.819Z,7.60
2022-10-31T15:07:53.868Z,10.07
2022-10-31T15:12:55.270Z,8.60
2022-10-31T15:17:59.950Z,8.45
2022-10-31T15:23:01.668Z,9.43
2022-10-31T15:28:14.683Z,8.55
2022-10-31T15:33:36.764Z,10.02
2022-10-31T15:38:39.621Z,8.10
2022-10-31T15:43:41.094Z,8.45
2022-10-31T15:48:47.705Z,8.13
2022-10-31T15:53:52.445Z,8.27
2022-10-31T15:58:55.454Z,9.02
2022-10-31T16:04:13.193Z,7.85
2022-10-31T16:09:25.035Z,9.48
2022-10-31T16:14:29.777Z,9.70
2022-10-31T16:19:34.687Z,9.23
2022-10-31T16:24:49.224Z,8.30
2022-10-31T16:29:50.682Z,9.07
2022-10-31T16:35:10.799Z,9.52
2022-10-31T16:40:13.666Z,9.27
2022-10-31T16:45:24.304Z,8.27
2022-10-31T16:50:27.877Z,10.13
2022-10-31T16:55:29.423Z,8.73
2022-10-31T17:00:30.880Z,9.95
2022-10-31T17:05:32.258Z,9.15
2022-10-31T17:10:34.255Z,8.95
2022-10-31T17:15:49.804Z,9.52
2022-10-31T17:20:55.557Z,9.10
2022-10-31T17:25:57.301Z,9.25
2022-10-31T17:30:58.685Z,9.82
2022-10-31T17:36:02.897Z,11.02
2022-10-31T17:41:11.003Z,9.65
2022-10-31T17:46:13.035Z,11.52
2022-10-31T17:51:14.469Z,10.15
2022-10-31T17:56:15.926Z,11.23
2022-10-31T18:01:18.790Z,10.80
2022-10-31T18:06:20.331Z,10.30
2022-10-31T18:11:21.921Z,9.43
2022-10-31T18:16:23.991Z,10.65
2022-10-31T18:21:25.706Z,8.70
2022-10-31T18:26:27.749Z,9.07
2022-10-31T18:31:29.441Z,11.07
2022-10-31T18:36:30.979Z,13.18
2022-10-31T18:41:32.895Z,12.60
2022-10-31T18:46:35.357Z,13.77
2022-10-31T18:51:36.796Z,10.63
2022-10-31T18:56:38.213Z,10.40
2022-10-31T19:01:40.130Z,10.82
2022-10-31T19:06:41.691Z,7.40
2022-10-31T19:11:43.108Z,8.07
2022-10-31T19:16:44.544Z,7.85
2022-10-31T19:21:46.350Z,8.18
2022-10-31T19:26:48.352Z,8.48
2022-10-31T19:31:49.765Z,8.10
2022-10-31T19:36:51.169Z,8.38
2022-10-31T19:41:52.574Z,8.70
2022-10-31T19:46:54.404Z,8.18
2022-10-31T19:51:55.872Z,10.45
2022-10-31T19:56:57.283Z,10.25
2022-10-31T20:01:58.729Z,9.70
2022-10-31T20:07:00.166Z,9.55
2022-10-31T20:12:02.808Z,10.05
2022-10-31T20:17:04.524Z,11.00
2022-10-31T20:22:05.941Z,10.32
2022-10-31T20:27:07.449Z,9.55
2022-10-31T20:32:08.849Z,12.55
2022-10-31T20:37:10.272Z,9.20
2022-10-31T20:42:11.664Z,8.68
2022-10-31T20:47:13.100Z,9.68
2022-10-31T20:52:14.521Z,9.27
2022-10-31T20:57:15.949Z,9.50
2022-10-31T21:02:17.467Z,10.27
2022-10-31T21:07:18.929Z,9.98
2022-10-31T21:12:20.309Z,10.52
2022-10-31T21:17:22.919Z,8.82
2022-10-31T21:22:24.339Z,9.13
2022-10-31T21:27:25.880Z,9.68
2022-10-31T21:32:27.293Z,10.43
2022-10-31T21:37:28.676Z,10.40
2022-10-31T21:42:30.058Z,9.98
2022-10-31T21:47:31.457Z,10.38
2022-10-31T21:52:32.869Z,9.55
2022-10-31T21:57:34.289Z,9.90
2022-10-31T22:02:36.503Z,10.13
2022-10-31T22:07:37.880Z,9.18
2022-10-31T22:12:39.249Z,7.70
2022-10-31T22:17:40.707Z,8.73
2022-10-31T22:22:42.113Z,8.07
2022-10-31T22:27:43.527Z,8.85
2022-10-31T22:32:44.923Z,8.50
2022-10-31T22:37:46.353Z,8.35
2022-10-31T22:42:47.751Z,8.73
2022-10-31T22:47:49.156Z,7.72
2022-10-31T22:52:50.572Z,8.82
2022-10-31T22:57:51.966Z,7.72
2022-10-31T23:02:53.324Z,7.68
2022-10-31T23:07:54.711Z,7.32
2022-10-31T23:12:56.109Z,7.75
2022-10-31T23:17:57.508Z,6.68
2022-10-31T23:22:59.330Z,6.78
2022-10-31T23:28:00.976Z,6.53
2022-10-31T23:33:02.667Z,6.45
2022-10-31T23:38:04.511Z,6.43
2022-10-31T23:43:06.981Z,6.07
2022-10-31T23:48:08.412Z,6.45
2022-10-31T23:53:09.804Z,6.03
2022-10-31T23:58:11.200Z,6.10
